Time;durP1;ratioP1;P1;durP2;ratioP2;P2;SDS_P1;SDS_P2;PMS_P1;PMS_P2;Temp;Humidity;BMP_temperature;BMP_pressure;BME280_temperature;BME280_humidity;BME280_pressure;Samples;Min_cycle;Max_cycle;Signal;HPM_P1;HPM_P2
2022/01/13 00:02:17;;;;;;;167.45;43.60;;;;;;;;;;5073050;28;20041;-67
2022/01/13 00:04:43;;;;;;;174.27;42.72;;;;;;;;;;5072557;28;20558;-68
2022/01/13 00:07:10;;;;;;;159.60;42.42;;;;;;;;;;5056098;28;20048;-67
2022/01/13 00:09:36;;;;;;;149.27;41.42;;;;;;;;;;5105131;28;20121;-70
2022/01/13 00:12:03;;;;;;;161.75;43.05;;;;;;;;;;5118148;28;20432;-69
2022/01/13 00:22:02;;;;;;;170.63;37.78;;;;;;;;;;5134165;27;20056;-68
2022/01/13 00:24:28;;;;;;;205.70;42.95;;;;;;;;;;5117418;28;20051;-68
2022/01/13 00:26:55;;;;;;;201.38;45.50;;;;;;;;;;5117141;28;20051;-69
2022/01/13 00:29:28;;;;;;;168.20;36.47;;;;;;;;;;5116895;28;20506;-67
2022/01/13 00:31:54;;;;;;;210.93;40.72;;;;;;;;;;5100242;28;20497;-69
2022/01/13 00:34:20;;;;;;;186.48;37.50;;;;;;;;;;5117126;28;20053;-67
2022/01/13 00:36:46;;;;;;;165.88;34.55;;;;;;;;;;5117000;28;20070;-69
2022/01/13 00:39:14;;;;;;;165.25;33.65;;;;;;;;;;5117001;28;20126;-69
2022/01/13 00:41:40;;;;;;;151.82;33.63;;;;;;;;;;5117402;28;20394;-72
2022/01/13 00:44:07;;;;;;;172.65;34.33;;;;;;;;;;5116891;28;20090;-70
2022/01/13 00:46:45;;;;;;;204.07;35.10;;;;;;;;;;5116820;28;20048;-69
2022/01/13 00:49:12;;;;;;;177.25;35.83;;;;;;;;;;5117455;28;20047;-68
2022/01/13 00:51:39;;;;;;;140.93;31.10;;;;;;;;;;5116785;28;20126;-68
2022/01/13 00:54:06;;;;;;;159.10;33.20;;;;;;;;;;5116781;28;20046;-68
2022/01/13 00:56:33;;;;;;;154.77;32.30;;;;;;;;;;5099440;28;20043;-68
2022/01/13 00:59:00;;;;;;;175.50;34.53;;;;;;;;;;5117088;28;20048;-69
2022/01/13 01:01:26;;;;;;;182.05;34.15;;;;;;;;;;5116633;28;20054;-69
2022/01/13 01:03:52;;;;;;;196.27;34.03;;;;;;;;;;5116532;28;20085;-69
2022/01/13 01:06:20;;;;;;;173.40;34.58;;;;;;;;;;5116687;28;20067;-70
2022/01/13 01:08:47;;;;;;;171.40;33.63;;;;;;;;;;5114127;28;20055;-69
2022/01/13 01:11:14;;;;;;;173.00;34.47;;;;;;;;;;5098532;28;20464;-69
2022/01/13 01:13:40;;;;;;;154.57;33.38;;;;;;;;;;5116456;28;20148;-69
2022/01/13 01:16:09;;;;;;;209.68;36.78;;;;;;;;;;5098058;28;20085;-69
2022/01/13 01:18:52;;;;;;;151.98;33.60;;;;;;;;;;5116321;28;20491;-69
2022/01/13 01:31:30;;;;;;;140.02;33.28;;;;;;;;;;5132267;27;20372;-69
2022/01/13 01:36:46;;;;;;;190.43;39.40;;;;;;;;;;5095636;28;20043;-72
2022/01/13 01:39:12;;;;;;;148.85;35.75;;;;;;;;;;5116435;28;20075;-70
2022/01/13 01:41:40;;;;;;;157.68;37.38;;;;;;;;;;5098627;28;20135;-69
2022/01/13 01:44:08;;;;;;;170.85;39.03;;;;;;;;;;5114811;28;20059;-69
2022/01/13 01:46:34;;;;;;;164.60;39.35;;;;;;;;;;5131651;27;20039;-69
2022/01/13 01:49:04;;;;;;;156.63;36.85;;;;;;;;;;5115653;28;20536;-69
2022/01/13 01:51:30;;;;;;;179.45;39.13;;;;;;;;;;5115644;28;20075;-69
2022/01/13 01:53:56;;;;;;;160.57;39.88;;;;;;;;;;5114494;28;20047;-71
2022/01/13 01:56:22;;;;;;;154.48;39.00;;;;;;;;;;5115627;28;20044;-71
2022/01/13 01:58:49;;;;;;;164.68;39.83;;;;;;;;;;5131552;27;20090;-71
2022/01/13 02:01:15;;;;;;;158.82;39.15;;;;;;;;;;5131125;27;20502;-70
2022/01/13 02:03:41;;;;;;;167.30;38.83;;;;;;;;;;5097421;28;20151;-70
2022/01/13 02:06:08;;;;;;;162.35;40.10;;;;;;;;;;5115326;28;20046;-71
2022/01/13 02:08:34;;;;;;;142.10;36.75;;;;;;;;;;5115087;28;20056;-68
2022/01/13 02:11:00;;;;;;;140.98;37.97;;;;;;;;;;5097816;28;20051;-71
2022/01/13 02:13:33;;;;;;;154.07;39.13;;;;;;;;;;5115331;28;20130;-71
2022/01/13 02:18:28;;;;;;;153.73;37.30;;;;;;;;;;5115429;28;20051;-70
2022/01/13 02:20:54;;;;;;;208.55;40.50;;;;;;;;;;5115559;28;20130;-72
2022/01/13 02:23:34;;;;;;;140.13;35.45;;;;;;;;;;5115030;28;20463;-69
2022/01/13 02:26:00;;;;;;;171.70;39.45;;;;;;;;;;5097537;28;20051;-69
2022/01/13 02:28:27;;;;;;;154.65;37.28;;;;;;;;;;5115518;28;20047;-69
2022/01/13 02:30:53;;;;;;;127.30;35.85;;;;;;;;;;5114945;28;20051;-69
2022/01/13 02:33:19;;;;;;;170.38;39.58;;;;;;;;;;5113394;28;20188;-70
2022/01/13 02:35:45;;;;;;;139.45;36.22;;;;;;;;;;5096952;28;20055;-70
2022/01/13 02:38:12;;;;;;;170.95;38.58;;;;;;;;;;5096709;28;20044;-70
2022/01/13 02:40:38;;;;;;;147.05;39.72;;;;;;;;;;5096750;28;20181;-68
2022/01/13 02:43:04;;;;;;;;;;;;;;;;;;5115110;28;20062;-70
2022/01/13 02:45:34;;;;;;;139.50;37.17;;;;;;;;;;5114877;28;19920;-70
2022/01/13 02:50:45;;;;;;;135.75;37.83;;;;;;;;;;5115426;28;20116;-71
2022/01/13 02:53:11;;;;;;;133.25;37.40;;;;;;;;;;5114570;28;20494;-71
2022/01/13 02:55:37;;;;;;;141.48;37.35;;;;;;;;;;5115026;28;20048;-69
2022/01/13 02:58:04;;;;;;;149.38;35.75;;;;;;;;;;5114417;28;20070;-71
2022/01/13 03:00:30;;;;;;;131.50;34.67;;;;;;;;;;5114413;28;20047;-71
2022/01/13 03:02:56;;;;;;;131.88;36.78;;;;;;;;;;5114020;28;20145;-69
2022/01/13 03:05:22;;;;;;;139.20;35.85;;;;;;;;;;5114425;28;20119;-69
2022/01/13 03:07:48;;;;;;;141.30;38.55;;;;;;;;;;5114318;28;20044;-69
2022/01/13 03:10:14;;;;;;;130.13;34.60;;;;;;;;;;5114228;28;20484;-70
2022/01/13 03:12:42;;;;;;;132.15;33.78;;;;;;;;;;5096117;28;20086;-69
2022/01/13 03:15:08;;;;;;;117.97;30.23;;;;;;;;;;5114083;28;20054;-69
2022/01/13 03:17:34;;;;;;;114.68;32.00;;;;;;;;;;5130131;27;20039;-70
2022/01/13 03:20:00;;;;;;;123.80;34.03;;;;;;;;;;5113808;28;20454;-70
2022/01/13 03:22:26;;;;;;;135.43;35.33;;;;;;;;;;5114007;28;20051;-71
2022/01/13 03:24:52;;;;;;;131.70;32.53;;;;;;;;;;5114516;28;20092;-71
2022/01/13 03:27:23;;;;;;;154.35;34.67;;;;;;;;;;5113956;28;20083;-71
2022/01/13 03:29:49;;;;;;;148.38;36.97;;;;;;;;;;5130023;27;20040;-70
2022/01/13 03:32:15;;;;;;;;;;;;;;;;;;5096406;28;20403;-70
2022/01/13 03:34:41;;;;;;;150.20;38.22;;;;;;;;;;5114006;28;19920;-70
2022/01/13 03:37:08;;;;;;;139.63;36.95;;;;;;;;;;5113320;28;20050;-69
2022/01/13 03:39:34;;;;;;;155.50;37.03;;;;;;;;;;5113872;28;20051;-71
2022/01/13 03:42:03;;;;;;;166.15;37.55;;;;;;;;;;5113971;28;20570;-70
2022/01/13 03:44:30;;;;;;;139.60;34.25;;;;;;;;;;5114184;28;20055;-72
2022/01/13 03:46:57;;;;;;;174.85;38.95;;;;;;;;;;5118103;28;20043;-71
2022/01/13 03:49:23;;;;;;;153.25;35.22;;;;;;;;;;5100025;28;20043;-70
2022/01/13 03:51:55;;;;;;;157.50;36.72;;;;;;;;;;5099841;28;20051;-70
2022/01/13 03:54:33;;;;;;;184.32;37.20;;;;;;;;;;5118135;28;20055;-71
2022/01/13 03:57:18;;;;;;;160.00;36.30;;;;;;;;;;5118436;28;20108;-69
2022/01/13 03:59:52;;;;;;;161.77;38.03;;;;;;;;;;5117854;28;20487;-69
2022/01/13 04:02:18;;;;;;;165.35;37.08;;;;;;;;;;5117765;28;20055;-69
2022/01/13 04:04:47;;;;;;;177.27;38.13;;;;;;;;;;5118528;28;20043;-69
2022/01/13 04:07:13;;;;;;;175.20;38.45;;;;;;;;;;5134175;27;20096;-69
2022/01/13 04:09:39;;;;;;;164.75;36.72;;;;;;;;;;5115849;28;20063;-69
2022/01/13 04:12:08;;;;;;;174.80;37.00;;;;;;;;;;5117687;28;20056;-68
2022/01/13 04:14:57;;;;;;;171.40;37.05;;;;;;;;;;5099528;28;20404;-70
2022/01/13 04:17:24;;;;;;;203.93;39.15;;;;;;;;;;5117462;28;20051;-69
2022/01/13 04:19:51;;;;;;;157.98;36.22;;;;;;;;;;5099417;28;20048;-69
2022/01/13 04:22:18;;;;;;;169.35;38.10;;;;;;;;;;5117048;28;20426;-70
2022/01/13 04:24:45;;;;;;;166.65;35.80;;;;;;;;;;5117811;28;20055;-69
2022/01/13 04:27:20;;;;;;;189.05;39.75;;;;;;;;;;5098967;28;20112;-72
2022/01/13 04:29:46;;;;;;;202.63;40.33;;;;;;;;;;5117797;28;20070;-69
2022/01/13 04:32:12;;;;;;;;;;;;;;;;;;5118218;28;20056;-73
2022/01/13 04:34:38;;;;;;;194.52;39.33;;;;;;;;;;5117194;28;20260;-68
2022/01/13 04:37:04;;;;;;;181.80;40.22;;;;;;;;;;5117188;28;20051;-70
2022/01/13 04:39:31;;;;;;;212.18;39.42;;;;;;;;;;5117467;28;20050;-70
2022/01/13 04:41:58;;;;;;;224.82;42.42;;;;;;;;;;5099111;28;20067;-69
2022/01/13 04:44:25;;;;;;;190.05;37.78;;;;;;;;;;5116984;28;20081;-70
2022/01/13 04:46:53;;;;;;;238.60;42.08;;;;;;;;;;5116869;28;20039;-71
2022/01/13 04:49:19;;;;;;;228.13;39.30;;;;;;;;;;5116828;28;20494;-71
2022/01/13 04:51:45;;;;;;;;;;;;;;;;;;5117890;28;20044;-68
2022/01/13 04:54:11;;;;;;;211.77;39.55;;;;;;;;;;5116879;28;19926;-68
2022/01/13 04:59:07;;;;;;;206.38;40.42;;;;;;;;;;5116634;28;20047;-69
2022/01/13 05:01:34;;;;;;;241.43;41.20;;;;;;;;;;5116614;28;20159;-70
2022/01/13 05:04:00;;;;;;;189.07;39.10;;;;;;;;;;5117521;28;20043;-69
2022/01/13 05:06:26;;;;;;;233.32;42.90;;;;;;;;;;5116490;28;20123;-71
2022/01/13 05:08:52;;;;;;;184.73;36.05;;;;;;;;;;5116464;28;20130;-72
2022/01/13 05:11:19;;;;;;;203.40;38.25;;;;;;;;;;5116878;28;20097;-76
2022/01/13 05:13:45;;;;;;;236.00;42.30;;;;;;;;;;5098559;28;20047;-70
2022/01/13 05:16:21;;;;;;;220.88;40.97;;;;;;;;;;5116563;28;20043;-71
2022/01/13 05:21:43;;;;;;;260.08;42.40;;;;;;;;;;5116451;28;20126;-71
2022/01/13 05:24:10;;;;;;;223.73;40.63;;;;;;;;;;5098437;28;20515;-73
2022/01/13 05:26:36;;;;;;;203.15;37.10;;;;;;;;;;5115791;28;20126;-72
2022/01/13 05:29:02;;;;;;;212.85;39.50;;;;;;;;;;5116234;28;20127;-71
2022/01/13 05:31:28;;;;;;;;;;;;;;;;;;5098471;28;20052;-70
2022/01/13 05:33:54;;;;;;;266.65;41.88;;;;;;;;;;5132120;27;19985;-70
2022/01/13 05:36:20;;;;;;;251.65;42.20;;;;;;;;;;5116079;28;20039;-70
2022/01/13 05:38:46;;;;;;;274.52;43.05;;;;;;;;;;5114411;28;20536;-70
2022/01/13 05:41:12;;;;;;;275.77;43.67;;;;;;;;;;5115964;28;20369;-70
2022/01/13 05:43:38;;;;;;;289.23;43.60;;;;;;;;;;5115832;28;20048;-70
2022/01/13 05:46:05;;;;;;;248.77;42.33;;;;;;;;;;5097737;28;20560;-70
2022/01/13 05:48:31;;;;;;;277.50;44.45;;;;;;;;;;5116265;28;20043;-71
2022/01/13 05:50:58;;;;;;;230.25;40.72;;;;;;;;;;5115617;28;20053;-70
2022/01/13 05:53:24;;;;;;;251.18;37.38;;;;;;;;;;5115713;28;20047;-74
2022/01/13 05:55:50;;;;;;;259.73;41.38;;;;;;;;;;5115701;28;20470;-70
2022/01/13 05:58:16;;;;;;;335.75;48.97;;;;;;;;;;5115705;28;20134;-70
2022/01/13 06:00:42;;;;;;;253.15;42.00;;;;;;;;;;5097277;28;20053;-71
2022/01/13 06:03:10;;;;;;;297.50;46.67;;;;;;;;;;5115532;28;20048;-70
2022/01/13 06:05:37;;;;;;;336.67;48.45;;;;;;;;;;5096766;28;20479;-69
2022/01/13 06:08:03;;;;;;;349.48;52.35;;;;;;;;;;5097634;28;20073;-70
2022/01/13 06:10:29;;;;;;;298.15;46.63;;;;;;;;;;5115110;28;20059;-71
2022/01/13 06:12:55;;;;;;;302.48;46.70;;;;;;;;;;5115599;28;20063;-69
2022/01/13 06:15:24;;;;;;;286.77;47.08;;;;;;;;;;5115827;28;20079;-70
2022/01/13 06:17:51;;;;;;;298.60;47.25;;;;;;;;;;5097949;28;20078;-70
2022/01/13 06:20:18;;;;;;;293.10;48.20;;;;;;;;;;5115203;28;20044;-70
2022/01/13 06:22:43;;;;;;;;;;;;;;;;;;5115505;28;20044;-70
2022/01/13 06:25:11;;;;;;;286.30;46.80;;;;;;;;;;5114035;28;19988;-69
2022/01/13 06:27:38;;;;;;;313.45;51.17;;;;;;;;;;5096721;28;20483;-71
2022/01/13 06:30:05;;;;;;;261.10;45.63;;;;;;;;;;5114644;28;20491;-70
2022/01/13 06:32:31;;;;;;;294.02;49.65;;;;;;;;;;5114840;28;20054;-73
2022/01/13 06:34:57;;;;;;;273.45;46.88;;;;;;;;;;5097128;28;20135;-71
2022/01/13 06:37:26;;;;;;;271.92;47.17;;;;;;;;;;5114818;28;20039;-70
2022/01/13 06:39:52;;;;;;;275.00;48.75;;;;;;;;;;5115235;28;20417;-71
2022/01/13 06:42:18;;;;;;;292.83;49.78;;;;;;;;;;5130801;27;20051;-71
2022/01/13 06:44:45;;;;;;;271.65;49.95;;;;;;;;;;5114659;28;20087;-69
2022/01/13 06:47:11;;;;;;;;;;;;;;;;;;5115065;28;20047;-70
2022/01/13 06:49:39;;;;;;;279.35;50.63;;;;;;;;;;5097175;28;19926;-71
2022/01/13 06:52:08;;;;;;;312.85;51.88;;;;;;;;;;5114623;28;20048;-71
2022/01/13 06:54:34;;;;;;;260.00;48.60;;;;;;;;;;5114553;28;20047;-73
2022/01/13 06:57:00;;;;;;;281.38;49.72;;;;;;;;;;5114544;28;20083;-69
2022/01/13 06:59:26;;;;;;;282.08;52.50;;;;;;;;;;5096501;28;20364;-71
2022/01/13 07:01:53;;;;;;;282.13;50.38;;;;;;;;;;5096501;28;20047;-72
2022/01/13 07:04:19;;;;;;;;;;;;;;;;;;5114532;28;20483;-71
2022/01/13 07:06:45;;;;;;;276.00;51.40;;;;;;;;;;5115002;28;20325;-70
2022/01/13 07:09:13;;;;;;;299.35;52.47;;;;;;;;;;5084407;28;20409;-70
2022/01/13 07:11:39;;;;;;;274.73;50.72;;;;;;;;;;5073573;28;20072;-70
2022/01/13 07:14:06;;;;;;;279.58;52.20;;;;;;;;;;5073918;28;20557;-71
2022/01/13 07:16:32;;;;;;;301.65;52.40;;;;;;;;;;5073149;28;20072;-71
2022/01/13 07:18:58;;;;;;;;;;;;;;;;;;5073841;28;20149;-72
2022/01/13 07:21:27;;;;;;;269.55;54.00;;;;;;;;;;5072064;28;20365;-70
2022/01/13 07:23:53;;;;;;;261.48;49.63;;;;;;;;;;5072980;28;20481;-67
2022/01/13 07:26:19;;;;;;;263.63;51.20;;;;;;;;;;5073463;28;20185;-70
2022/01/13 07:28:45;;;;;;;265.42;50.88;;;;;;;;;;5073692;28;20054;-69
2022/01/13 07:31:14;;;;;;;297.83;54.30;;;;;;;;;;5072913;28;20094;-70
2022/01/13 07:33:40;;;;;;;277.67;53.08;;;;;;;;;;5071828;28;20499;-72
2022/01/13 07:36:06;;;;;;;285.58;55.53;;;;;;;;;;5072953;28;20040;-68
2022/01/13 07:38:32;;;;;;;288.15;53.33;;;;;;;;;;5071642;28;20056;-69
2022/01/13 07:40:58;;;;;;;333.25;55.05;;;;;;;;;;5072572;28;20476;-69
2022/01/13 07:43:25;;;;;;;291.65;53.78;;;;;;;;;;5072657;28;20063;-69
2022/01/13 07:45:52;;;;;;;282.35;54.28;;;;;;;;;;5072637;28;20078;-69
2022/01/13 07:48:18;;;;;;;262.73;48.35;;;;;;;;;;5073104;28;20416;-67
2022/01/13 07:50:44;;;;;;;271.80;49.15;;;;;;;;;;5072344;28;20049;-69
2022/01/13 07:53:10;;;;;;;228.25;44.80;;;;;;;;;;5072739;28;20048;-68
2022/01/13 07:55:37;;;;;;;263.80;50.85;;;;;;;;;;5072049;28;20044;-71
2022/01/13 07:58:03;;;;;;;253.90;48.33;;;;;;;;;;5070723;28;20492;-69
2022/01/13 08:00:29;;;;;;;267.55;49.00;;;;;;;;;;5069959;28;20478;-70
2022/01/13 08:02:55;;;;;;;248.43;49.10;;;;;;;;;;5070717;28;20159;-71
2022/01/13 08:05:21;;;;;;;258.08;49.63;;;;;;;;;;5070161;28;20071;-69
2022/01/13 08:07:47;;;;;;;242.18;49.08;;;;;;;;;;5070101;28;20480;-70
2022/01/13 08:10:13;;;;;;;241.60;49.10;;;;;;;;;;5104665;28;20086;-68
2022/01/13 08:12:40;;;;;;;265.55;50.78;;;;;;;;;;5111466;28;20058;-71
2022/01/13 08:15:13;;;;;;;267.45;51.17;;;;;;;;;;5092863;28;20048;-70
2022/01/13 08:20:28;;;;;;;246.77;49.22;;;;;;;;;;5111204;28;20495;-71
2022/01/13 08:22:54;;;;;;;;;;;;;;;;;;5127316;28;20441;-71
2022/01/13 08:25:21;;;;;;;211.27;46.53;;;;;;;;;;5111523;28;19919;-70
2022/01/13 08:27:47;;;;;;;201.70;44.67;;;;;;;;;;5111322;28;20043;-67
2022/01/13 08:30:13;;;;;;;223.18;49.08;;;;;;;;;;5110510;28;20130;-71
2022/01/13 08:32:39;;;;;;;219.75;46.80;;;;;;;;;;5096834;28;20039;-68
2022/01/13 08:35:05;;;;;;;191.25;44.25;;;;;;;;;;5115093;28;20153;-70
2022/01/13 08:37:33;;;;;;;189.95;45.40;;;;;;;;;;5130951;27;20231;-69
2022/01/13 08:39:59;;;;;;;197.52;46.10;;;;;;;;;;5114953;28;20364;-70
2022/01/13 08:42:25;;;;;;;;;;;;;;;;;;5115441;28;20130;-69
2022/01/13 08:44:51;;;;;;;215.90;48.28;;;;;;;;;;5115208;28;19920;-65
2022/01/13 08:47:18;;;;;;;242.45;49.10;;;;;;;;;;5114791;28;20044;-72
2022/01/13 08:49:44;;;;;;;211.48;47.08;;;;;;;;;;5114855;28;20142;-69
2022/01/13 08:52:10;;;;;;;212.77;46.10;;;;;;;;;;5096865;28;20048;-69
2022/01/13 08:54:36;;;;;;;203.48;48.05;;;;;;;;;;5114462;28;20055;-70
2022/01/13 08:57:02;;;;;;;214.70;47.25;;;;;;;;;;5114632;28;20043;-68
2022/01/13 08:59:28;;;;;;;;;;;;;;;;;;5130923;27;20039;-69
2022/01/13 09:01:54;;;;;;;204.15;45.50;;;;;;;;;;5130308;27;19920;-69
2022/01/13 09:04:21;;;;;;;200.13;47.60;;;;;;;;;;5114507;28;20043;-69
2022/01/13 09:06:47;;;;;;;199.60;46.35;;;;;;;;;;5096444;28;20044;-69
2022/01/13 09:09:14;;;;;;;191.05;45.17;;;;;;;;;;5114482;28;20147;-67
2022/01/13 09:11:41;;;;;;;200.60;47.10;;;;;;;;;;5114638;28;20575;-69
2022/01/13 09:14:07;;;;;;;;;;;;;;;;;;5130367;27;20051;-68
2022/01/13 09:16:41;;;;;;;219.30;47.40;;;;;;;;;;5113791;28;19923;-70
2022/01/13 09:19:08;;;;;;;202.73;45.63;;;;;;;;;;5129918;27;20131;-70
2022/01/13 09:21:37;;;;;;;228.38;48.65;;;;;;;;;;5114095;28;20058;-69
2022/01/13 09:24:03;;;;;;;222.90;47.80;;;;;;;;;;5114113;28;20127;-69
2022/01/13 09:26:29;;;;;;;218.05;47.97;;;;;;;;;;5114133;28;20043;-69
2022/01/13 09:28:55;;;;;;;231.90;48.20;;;;;;;;;;5113682;28;20047;-68
2022/01/13 09:31:22;;;;;;;245.68;49.72;;;;;;;;;;5095882;28;20047;-69
2022/01/13 09:33:48;;;;;;;255.95;47.60;;;;;;;;;;5114015;28;20462;-67
2022/01/13 09:36:16;;;;;;;224.63;47.95;;;;;;;;;;5113584;28;20522;-69
2022/01/13 09:38:42;;;;;;;250.30;50.05;;;;;;;;;;5113638;28;20043;-69
2022/01/13 09:41:08;;;;;;;247.88;52.03;;;;;;;;;;5113407;28;20086;-69
2022/01/13 09:43:34;;;;;;;221.80;46.83;;;;;;;;;;5112748;28;20121;-67
2022/01/13 09:46:00;;;;;;;209.38;47.90;;;;;;;;;;5113445;28;20449;-69
2022/01/13 09:48:27;;;;;;;198.18;45.75;;;;;;;;;;5113458;28;20418;-67
2022/01/13 09:50:53;;;;;;;169.60;42.70;;;;;;;;;;5113523;28;20087;-68
2022/01/13 09:53:20;;;;;;;198.25;45.35;;;;;;;;;;5113389;28;20047;-69
2022/01/13 09:55:46;;;;;;;191.82;46.72;;;;;;;;;;5113150;28;20136;-70
2022/01/13 09:58:12;;;;;;;162.85;43.45;;;;;;;;;;5094991;28;20169;-68
2022/01/13 10:00:39;;;;;;;172.73;46.90;;;;;;;;;;5129208;27;20043;-69
2022/01/13 10:03:19;;;;;;;199.88;46.85;;;;;;;;;;5113348;28;20070;-69
2022/01/13 10:05:48;;;;;;;167.10;44.50;;;;;;;;;;5113501;28;20040;-68
2022/01/13 10:08:14;;;;;;;158.88;43.05;;;;;;;;;;5113221;28;20055;-67
2022/01/13 10:10:41;;;;;;;155.93;42.28;;;;;;;;;;5129497;27;20059;-70
2022/01/13 10:13:09;;;;;;;;;;;;;;;;;;5095529;28;20047;-69
2022/01/13 10:18:41;;;;;;;151.45;41.55;;;;;;;;;;5097643;28;20553;-69
2022/01/13 10:21:09;;;;;;;142.38;41.00;;;;;;;;;;5128784;27;20100;-68
2022/01/13 10:23:35;;;;;;;165.02;45.25;;;;;;;;;;5112914;28;20066;-68
2022/01/13 10:26:09;;;;;;;144.98;41.17;;;;;;;;;;5094499;28;20050;-68
2022/01/13 10:28:35;;;;;;;158.95;43.90;;;;;;;;;;5112969;28;20459;-69
2022/01/13 10:31:03;;;;;;;150.27;43.70;;;;;;;;;;5112723;28;20048;-66
2022/01/13 10:33:29;;;;;;;139.32;41.85;;;;;;;;;;5094373;28;20048;-68
2022/01/13 10:36:05;;;;;;;150.20;42.22;;;;;;;;;;5112637;28;20082;-67
2022/01/13 10:38:50;;;;;;;156.03;46.03;;;;;;;;;;5113302;28;20051;-68
2022/01/13 10:41:29;;;;;;;143.38;42.78;;;;;;;;;;5113051;28;20040;-67
2022/01/13 10:44:12;;;;;;;140.93;43.20;;;;;;;;;;5094771;28;20056;-67
2022/01/13 10:47:04;;;;;;;137.88;40.85;;;;;;;;;;5112588;28;20048;-66
2022/01/13 10:49:34;;;;;;;150.32;45.50;;;;;;;;;;5108229;28;20134;-66
2022/01/13 10:52:23;;;;;;;154.63;43.97;;;;;;;;;;5109852;28;20052;-69
2022/01/13 10:54:51;;;;;;;128.68;43.00;;;;;;;;;;5112517;28;20051;-67
2022/01/13 10:57:19;;;;;;;139.07;42.35;;;;;;;;;;5112156;28;20054;-69
2022/01/13 10:59:45;;;;;;;135.50;43.90;;;;;;;;;;5112053;28;20051;-69
2022/01/13 11:02:11;;;;;;;132.93;43.55;;;;;;;;;;5111984;28;20051;-69
2022/01/13 11:04:38;;;;;;;130.93;42.75;;;;;;;;;;5112030;28;20479;-71
2022/01/13 11:07:21;;;;;;;127.13;44.03;;;;;;;;;;5112905;28;20573;-68
2022/01/13 11:09:53;;;;;;;127.00;42.33;;;;;;;;;;5111851;28;20063;-71
2022/01/13 11:12:30;;;;;;;132.23;41.35;;;;;;;;;;5112369;28;20133;-70
2022/01/13 11:15:01;;;;;;;143.07;44.35;;;;;;;;;;5128010;27;20140;-71
2022/01/13 11:17:29;;;;;;;128.63;41.45;;;;;;;;;;5111837;28;20054;-68
2022/01/13 11:19:56;;;;;;;109.65;42.13;;;;;;;;;;5111769;28;20212;-70
2022/01/13 11:22:22;;;;;;;138.98;42.67;;;;;;;;;;5111742;28;20043;-68
2022/01/13 11:24:48;;;;;;;129.90;43.05;;;;;;;;;;5111742;28;20087;-68
2022/01/13 11:27:16;;;;;;;132.80;43.05;;;;;;;;;;5111628;28;20040;-67
2022/01/13 11:29:43;;;;;;;107.60;40.08;;;;;;;;;;5093800;28;20047;-69
2022/01/13 11:32:09;;;;;;;117.93;41.42;;;;;;;;;;5093733;28;20047;-70
2022/01/13 11:34:35;;;;;;;112.63;42.10;;;;;;;;;;5077590;28;20058;-69
2022/01/13 11:37:02;;;;;;;120.85;41.58;;;;;;;;;;5112412;28;20112;-68
2022/01/13 11:39:37;;;;;;;102.10;39.50;;;;;;;;;;5111600;28;20040;-70
2022/01/13 11:42:04;;;;;;;109.25;39.13;;;;;;;;;;5093487;28;20138;-70
2022/01/13 11:44:30;;;;;;;99.95;37.22;;;;;;;;;;5110822;28;20043;-70
2022/01/13 11:46:57;;;;;;;122.05;40.15;;;;;;;;;;5112154;28;20076;-71
2022/01/13 11:49:41;;;;;;;112.85;39.67;;;;;;;;;;5093467;28;20050;-70
2022/01/13 11:52:14;;;;;;;107.47;37.45;;;;;;;;;;5112006;28;20122;-70
2022/01/13 11:54:41;;;;;;;104.70;39.50;;;;;;;;;;5094423;28;20123;-70
2022/01/13 11:57:10;;;;;;;113.13;39.22;;;;;;;;;;5093862;28;20039;-70
2022/01/13 11:59:36;;;;;;;103.43;38.92;;;;;;;;;;5093943;28;20138;-70
2022/01/13 12:02:21;;;;;;;97.68;35.67;;;;;;;;;;5111173;28;20047;-69
2022/01/13 12:04:59;;;;;;;99.47;39.03;;;;;;;;;;5111510;28;20075;-71
2022/01/13 12:07:36;;;;;;;97.25;37.25;;;;;;;;;;5130848;27;20449;-69
2022/01/13 12:10:03;;;;;;;86.18;35.58;;;;;;;;;;5115641;28;20372;-70
2022/01/13 12:12:31;;;;;;;84.38;37.17;;;;;;;;;;5115356;28;20100;-69
2022/01/13 12:15:16;;;;;;;80.13;32.80;;;;;;;;;;5115449;28;20058;-67
2022/01/13 12:17:46;;;;;;;84.25;37.15;;;;;;;;;;5115154;28;20052;-67
2022/01/13 12:20:23;;;;;;;90.13;37.30;;;;;;;;;;5115174;28;20458;-69
2022/01/13 12:23:02;;;;;;;90.05;37.05;;;;;;;;;;5115642;28;20044;-70
2022/01/13 12:25:33;;;;;;;93.65;36.53;;;;;;;;;;5115801;28;20135;-70
2022/01/13 12:28:10;;;;;;;78.10;37.05;;;;;;;;;;5115202;28;20044;-70
2022/01/13 12:30:36;;;;;;;;;;;;;;;;;;5115851;28;20048;-70
2022/01/13 12:33:07;;;;;;;78.35;33.75;;;;;;;;;;5115218;28;20019;-69
2022/01/13 12:35:40;;;;;;;73.55;33.22;;;;;;;;;;5115288;28;20036;-70
2022/01/13 12:38:09;;;;;;;81.93;34.22;;;;;;;;;;5115573;28;20417;-70
2022/01/13 12:40:42;;;;;;;80.35;33.50;;;;;;;;;;5115423;28;20055;-70
2022/01/13 12:46:15;;;;;;;78.85;32.05;;;;;;;;;;5115072;28;20051;-68
2022/01/13 12:48:45;;;;;;;87.18;34.03;;;;;;;;;;5130620;27;20044;-69
2022/01/13 12:51:15;;;;;;;73.78;31.02;;;;;;;;;;5114928;28;20052;-69
2022/01/13 12:53:42;;;;;;;74.80;33.53;;;;;;;;;;5114634;28;20081;-70
2022/01/13 12:56:08;;;;;;;;;;;;;;;;;;5115052;28;20483;-66
2022/01/13 12:58:41;;;;;;;84.78;36.22;;;;;;;;;;5114963;28;20006;-68
2022/01/13 13:01:12;;;;;;;73.28;33.63;;;;;;;;;;5114584;28;20104;-71
2022/01/13 13:03:38;;;;;;;78.15;33.45;;;;;;;;;;5130446;27;20183;-69
2022/01/13 13:06:10;;;;;;;74.47;33.72;;;;;;;;;;5114334;28;20043;-71
2022/01/13 13:08:36;;;;;;;68.57;32.80;;;;;;;;;;5113738;28;20544;-71
2022/01/13 13:11:03;;;;;;;83.78;33.20;;;;;;;;;;5114325;28;20462;-69
2022/01/13 13:13:36;;;;;;;67.93;31.75;;;;;;;;;;5114147;28;20047;-70
2022/01/13 13:16:06;;;;;;;74.35;31.63;;;;;;;;;;5114583;28;20092;-71
2022/01/13 13:18:32;;;;;;;61.28;30.33;;;;;;;;;;5113400;28;20044;-71
2022/01/13 13:21:02;;;;;;;73.20;31.25;;;;;;;;;;5114361;28;20051;-71
2022/01/13 13:23:31;;;;;;;59.78;27.95;;;;;;;;;;5114060;28;20055;-72
2022/01/13 13:26:03;;;;;;;77.55;31.83;;;;;;;;;;5114166;28;20050;-72
2022/01/13 13:28:39;;;;;;;60.55;29.38;;;;;;;;;;5095916;28;20052;-76
2022/01/13 13:31:07;;;;;;;53.50;28.45;;;;;;;;;;5114784;28;20043;-67
2022/01/13 13:33:33;;;;;;;56.58;27.63;;;;;;;;;;5113881;28;20051;-70
2022/01/13 13:36:00;;;;;;;52.90;26.35;;;;;;;;;;5113861;28;20040;-71
2022/01/13 13:38:26;;;;;;;63.42;29.00;;;;;;;;;;5113708;28;20040;-72
2022/01/13 13:40:52;;;;;;;60.13;28.73;;;;;;;;;;5113507;28;20419;-68
2022/01/13 13:43:18;;;;;;;63.40;28.63;;;;;;;;;;5114398;28;20054;-71
2022/01/13 13:45:44;;;;;;;65.63;26.98;;;;;;;;;;5113937;28;20036;-70
2022/01/13 13:48:10;;;;;;;56.22;27.85;;;;;;;;;;5113680;28;20083;-70
2022/01/13 13:50:36;;;;;;;54.63;28.90;;;;;;;;;;5112763;27;20131;-70
2022/01/13 13:53:05;;;;;;;58.67;28.88;;;;;;;;;;5113541;28;20044;-69
2022/01/13 13:55:32;;;;;;;49.38;26.08;;;;;;;;;;5129434;27;20138;-69
2022/01/13 13:57:58;;;;;;;57.92;26.27;;;;;;;;;;5095102;28;20141;-70
2022/01/13 14:00:28;;;;;;;60.33;25.75;;;;;;;;;;5113161;28;20043;-69
2022/01/13 14:02:56;;;;;;;49.15;26.27;;;;;;;;;;5113085;28;20036;-69
2022/01/13 14:05:27;;;;;;;46.75;23.95;;;;;;;;;;5111829;28;20070;-72
2022/01/13 14:07:53;;;;;;;53.60;23.55;;;;;;;;;;5113579;28;20044;-71
2022/01/13 14:10:26;;;;;;;54.15;23.92;;;;;;;;;;5111697;28;20079;-80
2022/01/13 14:12:56;;;;;;;54.25;24.17;;;;;;;;;;5113022;28;20556;-69
2022/01/13 14:15:22;;;;;;;51.75;23.88;;;;;;;;;;5112838;28;20050;-68
2022/01/13 14:17:56;;;;;;;56.70;25.85;;;;;;;;;;5111869;28;20138;-67
2022/01/13 14:20:23;;;;;;;47.40;22.27;;;;;;;;;;5112935;28;20130;-68
2022/01/13 14:23:03;;;;;;;50.15;23.08;;;;;;;;;;5112788;28;20398;-68
2022/01/13 14:25:31;;;;;;;45.13;21.30;;;;;;;;;;5095285;28;20047;-68
2022/01/13 14:27:59;;;;;;;49.25;23.25;;;;;;;;;;5112853;28;20040;-69
2022/01/13 14:30:36;;;;;;;48.80;23.08;;;;;;;;;;5113030;28;20093;-69
2022/01/13 14:33:12;;;;;;;49.88;22.42;;;;;;;;;;5113281;28;20047;-68
2022/01/13 14:35:38;;;;;;;48.88;22.98;;;;;;;;;;5094956;28;20090;-73
2022/01/13 14:38:11;;;;;;;48.55;23.08;;;;;;;;;;5113162;28;20039;-68
2022/01/13 14:40:44;;;;;;;48.75;21.98;;;;;;;;;;5112693;28;20083;-68
2022/01/13 14:43:18;;;;;;;48.42;22.80;;;;;;;;;;5112591;28;20104;-69
2022/01/13 14:45:45;;;;;;;47.90;22.48;;;;;;;;;;5095661;28;20083;-68
2022/01/13 14:48:12;;;;;;;46.45;21.48;;;;;;;;;;5112635;28;20512;-67
2022/01/13 14:50:38;;;;;;;45.90;22.05;;;;;;;;;;5128187;27;20055;-67
2022/01/13 14:53:04;;;;;;;44.78;21.08;;;;;;;;;;5112473;28;20043;-67
2022/01/13 14:55:31;;;;;;;53.92;21.50;;;;;;;;;;5093962;28;20063;-69
2022/01/13 14:57:57;;;;;;;49.97;22.02;;;;;;;;;;5093993;28;20075;-71
2022/01/13 15:00:23;;;;;;;50.83;21.30;;;;;;;;;;5112270;28;20130;-67